sensor_id;sensor_type;location;lat;lon;timestamp;P1;durP1;ratioP1;P2;durP2;ratioP2
82230;SDS011;71832;45.138;9.816;2023-11-19T09:23:56;27.77;;;13.98;;
82230;SDS011;71832;45.138;9.816;2023-11-19T09:26:24;24.80;;;13.63;;
82230;SDS011;71832;45.138;9.816;2023-11-19T09:28:52;24.02;;;13.27;;
82230;SDS011;71832;45.138;9.816;2023-11-19T09:31:20;28.02;;;14.55;;
82230;SDS011;71832;45.138;9.816;2023-11-19T09:33:48;26.80;;;13.93;;
82230;SDS011;71832;45.138;9.816;2023-11-19T09:36:16;25.15;;;14.45;;
82230;SDS011;71832;45.138;9.816;2023-11-19T09:38:45;26.63;;;15.27;;
82230;SDS011;71832;45.138;9.816;2023-11-19T09:41:12;26.10;;;15.18;;
82230;SDS011;71832;45.138;9.816;2023-11-19T09:43:41;29.17;;;17.15;;
82230;SDS011;71832;45.138;9.816;2023-11-19T09:46:11;31.92;;;16.23;;
82230;SDS011;71832;45.138;9.816;2023-11-19T09:48:41;28.02;;;15.90;;
82230;SDS011;71832;45.138;9.816;2023-11-19T09:51:11;28.92;;;16.38;;
82230;SDS011;71832;45.138;9.816;2023-11-19T09:53:40;28.70;;;16.35;;
82230;SDS011;71832;45.138;9.816;2023-11-19T09:56:08;29.52;;;16.08;;
82230;SDS011;71832;45.138;9.816;2023-11-19T09:58:37;28.45;;;16.02;;
82230;SDS011;71832;45.138;9.816;2023-11-19T10:01:07;27.15;;;16.23;;
82230;SDS011;71832;45.138;9.816;2023-11-19T10:03:38;28.63;;;15.57;;
82230;SDS011;71832;45.138;9.816;2023-11-19T10:06:09;27.55;;;16.40;;
82230;SDS011;71832;45.138;9.816;2023-11-19T10:08:37;28.98;;;17.55;;
82230;SDS011;71832;45.138;9.816;2023-11-19T10:11:07;31.50;;;18.33;;
82230;SDS011;71832;45.138;9.816;2023-11-19T10:13:36;32.92;;;17.48;;
82230;SDS011;71832;45.138;9.816;2023-11-19T10:16:07;28.50;;;17.42;;
82230;SDS011;71832;45.138;9.816;2023-11-19T10:18:37;30.30;;;16.85;;
82230;SDS011;71832;45.138;9.816;2023-11-19T10:21:15;30.80;;;18.52;;
82230;SDS011;71832;45.138;9.816;2023-11-19T10:23:50;29.73;;;16.73;;
82230;SDS011;71832;45.138;9.816;2023-11-19T10:26:19;26.77;;;16.73;;
82230;SDS011;71832;45.138;9.816;2023-11-19T10:28:48;31.02;;;18.42;;
82230;SDS011;71832;45.138;9.816;2023-11-19T10:31:18;32.38;;;18.08;;
82230;SDS011;71832;45.138;9.816;2023-11-19T10:33:51;32.00;;;18.60;;
82230;SDS011;71832;45.138;9.816;2023-11-19T10:36:19;30.73;;;17.10;;
82230;SDS011;71832;45.138;9.816;2023-11-19T10:38:54;30.60;;;18.15;;
82230;SDS011;71832;45.138;9.816;2023-11-19T10:41:29;27.45;;;16.45;;
82230;SDS011;71832;45.138;9.816;2023-11-19T10:43:59;28.58;;;17.65;;
82230;SDS011;71832;45.138;9.816;2023-11-19T10:46:46;26.40;;;16.38;;
82230;SDS011;71832;45.138;9.816;2023-11-19T10:49:16;27.88;;;16.42;;
82230;SDS011;71832;45.138;9.816;2023-11-19T10:51:45;24.80;;;16.95;;
82230;SDS011;71832;45.138;9.816;2023-11-19T10:54:13;56.92;;;28.42;;
82230;SDS011;71832;45.138;9.816;2023-11-19T10:56:46;32.60;;;20.02;;
82230;SDS011;71832;45.138;9.816;2023-11-19T10:59:19;40.13;;;23.30;;
82230;SDS011;71832;45.138;9.816;2023-11-19T11:01:50;26.58;;;17.05;;
82230;SDS011;71832;45.138;9.816;2023-11-19T11:04:23;30.95;;;16.73;;
82230;SDS011;71832;45.138;9.816;2023-11-19T11:06:54;29.88;;;17.60;;
82230;SDS011;71832;45.138;9.816;2023-11-19T11:09:26;28.60;;;17.60;;
82230;SDS011;71832;45.138;9.816;2023-11-19T11:11:53;31.25;;;18.23;;
82230;SDS011;71832;45.138;9.816;2023-11-19T11:14:23;36.13;;;18.02;;
82230;SDS011;71832;45.138;9.816;2023-11-19T11:16:52;26.67;;;18.17;;
82230;SDS011;71832;45.138;9.816;2023-11-19T11:19:22;26.38;;;16.83;;
82230;SDS011;71832;45.138;9.816;2023-11-19T11:21:50;26.65;;;16.55;;
82230;SDS011;71832;45.138;9.816;2023-11-19T11:24:24;29.17;;;16.65;;
82230;SDS011;71832;45.138;9.816;2023-11-19T11:35:24;25.67;;;16.08;;
82230;SDS011;71832;45.138;9.816;2023-11-19T11:38:08;27.08;;;15.43;;
82230;SDS011;71832;45.138;9.816;2023-11-19T11:40:35;26.60;;;15.50;;
82230;SDS011;71832;45.138;9.816;2023-11-19T11:43:04;27.85;;;16.38;;
82230;SDS011;71832;45.138;9.816;2023-11-19T11:45:51;24.23;;;14.65;;
82230;SDS011;71832;45.138;9.816;2023-11-19T11:48:19;21.25;;;13.90;;
82230;SDS011;71832;45.138;9.816;2023-11-19T11:50:50;27.70;;;16.85;;
82230;SDS011;71832;45.138;9.816;2023-11-19T11:53:21;25.05;;;15.10;;
82230;SDS011;71832;45.138;9.816;2023-11-19T11:58:21;26.95;;;14.90;;
82230;SDS011;71832;45.138;9.816;2023-11-19T12:00:57;23.83;;;14.40;;
82230;SDS011;71832;45.138;9.816;2023-11-19T12:03:28;22.33;;;14.45;;
82230;SDS011;71832;45.138;9.816;2023-11-19T12:05:58;83.75;;;42.13;;
82230;SDS011;71832;45.138;9.816;2023-11-19T12:08:27;31.80;;;19.23;;
82230;SDS011;71832;45.138;9.816;2023-11-19T12:10:56;96.35;;;49.45;;
82230;SDS011;71832;45.138;9.816;2023-11-19T12:13:29;38.80;;;22.60;;
82230;SDS011;71832;45.138;9.816;2023-11-19T12:16:16;24.45;;;15.50;;
82230;SDS011;71832;45.138;9.816;2023-11-19T12:18:44;23.02;;;14.35;;
82230;SDS011;71832;45.138;9.816;2023-11-19T12:21:27;22.48;;;13.77;;
82230;SDS011;71832;45.138;9.816;2023-11-19T12:23:55;23.42;;;14.07;;
82230;SDS011;71832;45.138;9.816;2023-11-19T12:26:33;26.25;;;14.27;;
82230;SDS011;71832;45.138;9.816;2023-11-19T12:29:03;23.80;;;14.93;;
82230;SDS011;71832;45.138;9.816;2023-11-19T12:31:32;24.23;;;16.65;;
82230;SDS011;71832;45.138;9.816;2023-11-19T12:34:04;31.50;;;18.75;;
82230;SDS011;71832;45.138;9.816;2023-11-19T12:36:37;25.42;;;16.00;;
82230;SDS011;71832;45.138;9.816;2023-11-19T12:39:06;23.02;;;14.43;;
82230;SDS011;71832;45.138;9.816;2023-11-19T12:41:48;23.02;;;14.35;;
82230;SDS011;71832;45.138;9.816;2023-11-19T12:44:17;20.80;;;13.23;;
82230;SDS011;71832;45.138;9.816;2023-11-19T12:46:45;26.33;;;15.07;;
82230;SDS011;71832;45.138;9.816;2023-11-19T12:49:26;24.52;;;15.65;;
82230;SDS011;71832;45.138;9.816;2023-11-19T12:51:55;24.65;;;14.90;;
82230;SDS011;71832;45.138;9.816;2023-11-19T12:54:44;21.35;;;13.25;;
82230;SDS011;71832;45.138;9.816;2023-11-19T12:57:10;26.63;;;15.27;;
82230;SDS011;71832;45.138;9.816;2023-11-19T12:59:38;22.08;;;14.30;;
82230;SDS011;71832;45.138;9.816;2023-11-19T13:02:07;25.27;;;16.38;;
82230;SDS011;71832;45.138;9.816;2023-11-19T13:04:36;21.23;;;13.45;;
82230;SDS011;71832;45.138;9.816;2023-11-19T13:07:04;23.70;;;15.52;;
82230;SDS011;71832;45.138;9.816;2023-11-19T13:09:33;24.25;;;15.20;;
82230;SDS011;71832;45.138;9.816;2023-11-19T13:12:12;25.85;;;14.18;;
82230;SDS011;71832;45.138;9.816;2023-11-19T13:14:42;26.15;;;15.95;;
82230;SDS011;71832;45.138;9.816;2023-11-19T13:17:13;23.35;;;15.45;;
82230;SDS011;71832;45.138;9.816;2023-11-19T13:19:42;43.22;;;27.83;;
82230;SDS011;71832;45.138;9.816;2023-11-19T13:22:14;44.00;;;29.60;;
82230;SDS011;71832;45.138;9.816;2023-11-19T13:24:42;41.13;;;29.02;;
82230;SDS011;71832;45.138;9.816;2023-11-19T13:27:11;27.15;;;18.15;;
82230;SDS011;71832;45.138;9.816;2023-11-19T13:29:41;28.48;;;20.25;;
82230;SDS011;71832;45.138;9.816;2023-11-19T13:32:10;28.30;;;19.25;;
82230;SDS011;71832;45.138;9.816;2023-11-19T13:34:38;24.20;;;16.83;;
82230;SDS011;71832;45.138;9.816;2023-11-19T13:37:06;23.02;;;14.32;;
82230;SDS011;71832;45.138;9.816;2023-11-19T13:39:35;23.08;;;14.23;;
82230;SDS011;71832;45.138;9.816;2023-11-19T13:42:08;23.58;;;14.77;;
82230;SDS011;71832;45.138;9.816;2023-11-19T13:44:35;23.05;;;12.80;;
82230;SDS011;71832;45.138;9.816;2023-11-19T13:47:04;21.75;;;12.65;;
82230;SDS011;71832;45.138;9.816;2023-11-19T13:49:32;23.33;;;13.55;;
82230;SDS011;71832;45.138;9.816;2023-11-19T13:52:00;23.55;;;12.65;;
82230;SDS011;71832;45.138;9.816;2023-11-19T13:54:29;21.50;;;13.00;;
82230;SDS011;71832;45.138;9.816;2023-11-19T13:56:58;22.63;;;13.50;;
82230;SDS011;71832;45.138;9.816;2023-11-19T13:59:26;23.70;;;13.02;;
82230;SDS011;71832;45.138;9.816;2023-11-19T14:01:54;22.10;;;13.23;;
82230;SDS011;71832;45.138;9.816;2023-11-19T14:04:23;21.10;;;13.52;;
82230;SDS011;71832;45.138;9.816;2023-11-19T14:06:51;22.15;;;12.77;;
82230;SDS011;71832;45.138;9.816;2023-11-19T14:09:21;24.77;;;12.10;;
82230;SDS011;71832;45.138;9.816;2023-11-19T14:11:49;20.33;;;12.27;;
82230;SDS011;71832;45.138;9.816;2023-11-19T14:14:18;23.75;;;12.70;;
82230;SDS011;71832;45.138;9.816;2023-11-19T14:16:45;20.58;;;11.40;;
82230;SDS011;71832;45.138;9.816;2023-11-19T14:19:13;21.00;;;11.80;;
82230;SDS011;71832;45.138;9.816;2023-11-19T14:21:41;19.05;;;10.98;;
82230;SDS011;71832;45.138;9.816;2023-11-19T14:24:13;20.30;;;11.60;;
82230;SDS011;71832;45.138;9.816;2023-11-19T14:26:45;20.08;;;11.63;;
82230;SDS011;71832;45.138;9.816;2023-11-19T14:29:13;21.05;;;11.90;;
82230;SDS011;71832;45.138;9.816;2023-11-19T14:31:41;20.92;;;12.80;;
82230;SDS011;71832;45.138;9.816;2023-11-19T14:34:10;24.13;;;13.15;;
82230;SDS011;71832;45.138;9.816;2023-11-19T14:36:39;21.08;;;12.77;;
82230;SDS011;71832;45.138;9.816;2023-11-19T14:39:07;24.27;;;13.60;;
82230;SDS011;71832;45.138;9.816;2023-11-19T14:41:36;21.33;;;12.55;;
82230;SDS011;71832;45.138;9.816;2023-11-19T14:44:04;21.90;;;11.98;;
82230;SDS011;71832;45.138;9.816;2023-11-19T14:46:35;19.65;;;11.57;;
82230;SDS011;71832;45.138;9.816;2023-11-19T14:49:04;19.40;;;11.32;;
82230;SDS011;71832;45.138;9.816;2023-11-19T14:51:37;20.88;;;11.93;;
82230;SDS011;71832;45.138;9.816;2023-11-19T14:54:04;23.73;;;13.10;;
82230;SDS011;71832;45.138;9.816;2023-11-19T14:56:32;18.10;;;11.57;;
82230;SDS011;71832;45.138;9.816;2023-11-19T14:59:00;18.40;;;11.43;;
82230;SDS011;71832;45.138;9.816;2023-11-19T15:01:27;17.58;;;11.32;;
82230;SDS011;71832;45.138;9.816;2023-11-19T15:03:56;21.27;;;11.48;;
82230;SDS011;71832;45.138;9.816;2023-11-19T15:06:24;21.23;;;11.55;;
82230;SDS011;71832;45.138;9.816;2023-11-19T15:08:53;17.17;;;10.75;;
82230;SDS011;71832;45.138;9.816;2023-11-19T15:11:20;16.60;;;10.88;;
82230;SDS011;71832;45.138;9.816;2023-11-19T15:13:48;19.38;;;11.20;;
82230;SDS011;71832;45.138;9.816;2023-11-19T15:16:16;18.25;;;11.55;;
82230;SDS011;71832;45.138;9.816;2023-11-19T15:18:50;18.17;;;11.23;;
82230;SDS011;71832;45.138;9.816;2023-11-19T15:21:18;21.95;;;13.52;;
82230;SDS011;71832;45.138;9.816;2023-11-19T15:23:46;24.00;;;14.30;;
82230;SDS011;71832;45.138;9.816;2023-11-19T15:26:13;22.90;;;14.02;;
82230;SDS011;71832;45.138;9.816;2023-11-19T15:28:41;32.13;;;17.70;;
82230;SDS011;71832;45.138;9.816;2023-11-19T15:31:08;37.55;;;22.20;;
82230;SDS011;71832;45.138;9.816;2023-11-19T15:33:36;31.35;;;18.45;;
82230;SDS011;71832;45.138;9.816;2023-11-19T15:36:05;26.27;;;15.82;;
82230;SDS011;71832;45.138;9.816;2023-11-19T15:38:34;31.08;;;16.20;;
82230;SDS011;71832;45.138;9.816;2023-11-19T15:41:02;27.40;;;15.98;;
82230;SDS011;71832;45.138;9.816;2023-11-19T15:43:30;31.15;;;16.48;;
82230;SDS011;71832;45.138;9.816;2023-11-19T15:45:59;26.45;;;16.10;;
82230;SDS011;71832;45.138;9.816;2023-11-19T15:48:27;25.02;;;13.95;;
82230;SDS011;71832;45.138;9.816;2023-11-19T15:50:56;24.88;;;13.98;;
82230;SDS011;71832;45.138;9.816;2023-11-19T15:53:25;25.42;;;14.85;;
82230;SDS011;71832;45.138;9.816;2023-11-19T15:55:53;24.73;;;13.90;;
82230;SDS011;71832;45.138;9.816;2023-11-19T15:58:22;23.25;;;13.65;;
82230;SDS011;71832;45.138;9.816;2023-11-19T16:00:51;21.83;;;12.55;;
82230;SDS011;71832;45.138;9.816;2023-11-19T16:03:19;24.23;;;13.30;;
82230;SDS011;71832;45.138;9.816;2023-11-19T16:05:48;21.52;;;12.55;;
82230;SDS011;71832;45.138;9.816;2023-11-19T16:08:17;22.65;;;12.45;;
82230;SDS011;71832;45.138;9.816;2023-11-19T16:10:47;23.25;;;12.88;;
82230;SDS011;71832;45.138;9.816;2023-11-19T16:13:15;24.65;;;12.30;;
82230;SDS011;71832;45.138;9.816;2023-11-19T16:15:45;25.25;;;13.95;;
82230;SDS011;71832;45.138;9.816;2023-11-19T16:18:13;22.60;;;12.57;;
82230;SDS011;71832;45.138;9.816;2023-11-19T16:20:41;23.63;;;12.95;;
82230;SDS011;71832;45.138;9.816;2023-11-19T16:23:08;20.30;;;11.90;;
82230;SDS011;71832;45.138;9.816;2023-11-19T16:25:36;23.15;;;13.30;;
82230;SDS011;71832;45.138;9.816;2023-11-19T16:28:05;23.70;;;12.80;;
82230;SDS011;71832;45.138;9.816;2023-11-19T16:30:35;21.52;;;12.85;;
82230;SDS011;71832;45.138;9.816;2023-11-19T16:33:02;23.20;;;12.68;;
82230;SDS011;71832;45.138;9.816;2023-11-19T16:35:30;22.70;;;14.05;;
82230;SDS011;71832;45.138;9.816;2023-11-19T16:37:58;23.67;;;13.98;;
82230;SDS011;71832;45.138;9.816;2023-11-19T16:40:27;25.83;;;13.98;;
82230;SDS011;71832;45.138;9.816;2023-11-19T16:42:56;24.65;;;13.73;;
82230;SDS011;71832;45.138;9.816;2023-11-19T16:45:24;25.95;;;14.30;;
82230;SDS011;71832;45.138;9.816;2023-11-19T16:47:52;25.25;;;14.25;;
82230;SDS011;71832;45.138;9.816;2023-11-19T16:50:21;25.77;;;15.95;;
82230;SDS011;71832;45.138;9.816;2023-11-19T16:52:48;29.08;;;15.48;;
82230;SDS011;71832;45.138;9.816;2023-11-19T16:55:15;38.35;;;18.50;;
82230;SDS011;71832;45.138;9.816;2023-11-19T16:57:43;39.00;;;18.02;;
82230;SDS011;71832;45.138;9.816;2023-11-19T17:00:10;44.78;;;19.88;;
82230;SDS011;71832;45.138;9.816;2023-11-19T17:02:39;40.95;;;21.27;;
82230;SDS011;71832;45.138;9.816;2023-11-19T17:05:09;38.92;;;19.70;;
82230;SDS011;71832;45.138;9.816;2023-11-19T17:07:37;33.28;;;18.75;;
82230;SDS011;71832;45.138;9.816;2023-11-19T17:10:05;32.22;;;16.90;;
82230;SDS011;71832;45.138;9.816;2023-11-19T17:12:33;29.10;;;15.70;;
82230;SDS011;71832;45.138;9.816;2023-11-19T17:15:01;32.67;;;17.77;;
82230;SDS011;71832;45.138;9.816;2023-11-19T17:17:30;29.95;;;16.42;;
82230;SDS011;71832;45.138;9.816;2023-11-19T17:20:01;29.20;;;16.40;;
82230;SDS011;71832;45.138;9.816;2023-11-19T17:22:31;31.98;;;17.52;;
82230;SDS011;71832;45.138;9.816;2023-11-19T17:25:01;29.02;;;15.48;;
82230;SDS011;71832;45.138;9.816;2023-11-19T17:27:30;31.77;;;17.20;;
82230;SDS011;71832;45.138;9.816;2023-11-19T17:29:59;30.50;;;18.08;;
82230;SDS011;71832;45.138;9.816;2023-11-19T17:32:30;29.00;;;16.95;;
82230;SDS011;71832;45.138;9.816;2023-11-19T17:34:59;29.73;;;16.40;;
82230;SDS011;71832;45.138;9.816;2023-11-19T17:37:29;30.85;;;17.05;;
82230;SDS011;71832;45.138;9.816;2023-11-19T17:39:57;31.27;;;17.63;;
82230;SDS011;71832;45.138;9.816;2023-11-19T17:42:25;28.35;;;16.33;;
82230;SDS011;71832;45.138;9.816;2023-11-19T17:44:52;28.60;;;16.02;;
82230;SDS011;71832;45.138;9.816;2023-11-19T17:47:24;29.17;;;17.90;;
82230;SDS011;71832;45.138;9.816;2023-11-19T17:49:51;28.92;;;16.52;;
82230;SDS011;71832;45.138;9.816;2023-11-19T17:52:19;29.85;;;15.90;;
82230;SDS011;71832;45.138;9.816;2023-11-19T17:54:49;30.25;;;16.27;;
82230;SDS011;71832;45.138;9.816;2023-11-19T17:57:18;28.67;;;15.73;;
82230;SDS011;71832;45.138;9.816;2023-11-19T17:59:47;29.98;;;16.85;;
82230;SDS011;71832;45.138;9.816;2023-11-19T18:02:16;28.15;;;16.95;;
82230;SDS011;71832;45.138;9.816;2023-11-19T18:04:46;31.63;;;17.02;;
82230;SDS011;71832;45.138;9.816;2023-11-19T18:07:14;33.92;;;17.17;;
82230;SDS011;71832;45.138;9.816;2023-11-19T18:09:43;29.35;;;16.50;;
82230;SDS011;71832;45.138;9.816;2023-11-19T18:12:11;33.58;;;18.23;;
82230;SDS011;71832;45.138;9.816;2023-11-19T18:14:39;33.72;;;18.83;;
82230;SDS011;71832;45.138;9.816;2023-11-19T18:17:07;33.85;;;18.88;;
82230;SDS011;71832;45.138;9.816;2023-11-19T18:19:36;30.38;;;17.90;;
82230;SDS011;71832;45.138;9.816;2023-11-19T18:22:06;32.22;;;18.45;;
82230;SDS011;71832;45.138;9.816;2023-11-19T18:24:34;35.38;;;19.25;;
82230;SDS011;71832;45.138;9.816;2023-11-19T18:27:02;37.38;;;19.15;;
82230;SDS011;71832;45.138;9.816;2023-11-19T18:29:30;35.00;;;19.63;;
82230;SDS011;71832;45.138;9.816;2023-11-19T18:31:57;35.78;;;20.23;;
82230;SDS011;71832;45.138;9.816;2023-11-19T18:34:24;40.92;;;19.38;;
82230;SDS011;71832;45.138;9.816;2023-11-19T18:36:52;33.42;;;20.15;;
82230;SDS011;71832;45.138;9.816;2023-11-19T18:39:20;33.20;;;19.10;;
82230;SDS011;71832;45.138;9.816;2023-11-19T18:41:48;35.03;;;20.45;;
82230;SDS011;71832;45.138;9.816;2023-11-19T18:44:15;32.65;;;16.85;;
82230;SDS011;71832;45.138;9.816;2023-11-19T18:46:43;33.10;;;18.42;;
82230;SDS011;71832;45.138;9.816;2023-11-19T18:49:10;35.75;;;18.88;;
82230;SDS011;71832;45.138;9.816;2023-11-19T18:51:38;37.88;;;19.48;;
82230;SDS011;71832;45.138;9.816;2023-11-19T18:54:05;33.08;;;18.92;;
82230;SDS011;71832;45.138;9.816;2023-11-19T18:56:33;33.92;;;19.05;;
82230;SDS011;71832;45.138;9.816;2023-11-19T18:59:01;36.67;;;17.65;;
82230;SDS011;71832;45.138;9.816;2023-11-19T19:01:33;37.05;;;18.73;;
82230;SDS011;71832;45.138;9.816;2023-11-19T19:04:00;34.25;;;18.60;;
82230;SDS011;71832;45.138;9.816;2023-11-19T19:06:28;33.40;;;18.27;;
82230;SDS011;71832;45.138;9.816;2023-11-19T19:08:55;36.60;;;19.13;;
82230;SDS011;71832;45.138;9.816;2023-11-19T19:11:23;34.30;;;19.17;;
82230;SDS011;71832;45.138;9.816;2023-11-19T19:13:50;34.55;;;18.92;;
82230;SDS011;71832;45.138;9.816;2023-11-19T19:16:17;38.75;;;20.23;;
82230;SDS011;71832;45.138;9.816;2023-11-19T19:18:45;34.70;;;18.70;;
82230;SDS011;71832;45.138;9.816;2023-11-19T19:21:16;40.67;;;19.90;;
82230;SDS011;71832;45.138;9.816;2023-11-19T19:23:44;33.17;;;18.55;;
82230;SDS011;71832;45.138;9.816;2023-11-19T19:26:11;39.10;;;17.85;;
82230;SDS011;71832;45.138;9.816;2023-11-19T19:28:38;31.77;;;18.50;;
82230;SDS011;71832;45.138;9.816;2023-11-19T19:31:09;30.63;;;17.95;;
82230;SDS011;71832;45.138;9.816;2023-11-19T19:33:43;30.38;;;17.50;;
82230;SDS011;71832;45.138;9.816;2023-11-19T19:38:41;31.77;;;16.40;;
82230;SDS011;71832;45.138;9.816;2023-11-19T19:41:08;32.17;;;17.23;;
82230;SDS011;71832;45.138;9.816;2023-11-19T19:43:36;34.42;;;18.30;;
82230;SDS011;71832;45.138;9.816;2023-11-19T19:46:05;34.45;;;18.15;;
82230;SDS011;71832;45.138;9.816;2023-11-19T19:48:37;34.00;;;18.60;;
82230;SDS011;71832;45.138;9.816;2023-11-19T19:51:05;29.15;;;16.58;;
82230;SDS011;71832;45.138;9.816;2023-11-19T19:53:33;36.17;;;18.17;;
82230;SDS011;71832;45.138;9.816;2023-11-19T19:56:03;35.92;;;18.17;;
82230;SDS011;71832;45.138;9.816;2023-11-19T19:58:34;31.33;;;16.88;;
82230;SDS011;71832;45.138;9.816;2023-11-19T20:01:02;29.83;;;17.15;;
82230;SDS011;71832;45.138;9.816;2023-11-19T20:03:32;32.83;;;18.35;;
82230;SDS011;71832;45.138;9.816;2023-11-19T20:06:00;27.00;;;16.35;;
82230;SDS011;71832;45.138;9.816;2023-11-19T20:08:31;29.75;;;16.23;;
82230;SDS011;71832;45.138;9.816;2023-11-19T20:10:59;33.00;;;16.95;;
82230;SDS011;71832;45.138;9.816;2023-11-19T20:13:29;32.05;;;16.83;;
82230;SDS011;71832;45.138;9.816;2023-11-19T20:15:57;28.50;;;18.33;;
82230;SDS011;71832;45.138;9.816;2023-11-19T20:18:25;28.58;;;16.15;;
82230;SDS011;71832;45.138;9.816;2023-11-19T20:20:56;33.05;;;16.95;;
82230;SDS011;71832;45.138;9.816;2023-11-19T20:23:25;30.80;;;16.52;;
82230;SDS011;71832;45.138;9.816;2023-11-19T20:25:53;32.33;;;17.92;;
82230;SDS011;71832;45.138;9.816;2023-11-19T20:28:22;33.38;;;16.70;;
82230;SDS011;71832;45.138;9.816;2023-11-19T20:30:51;26.20;;;15.75;;
82230;SDS011;71832;45.138;9.816;2023-11-19T20:33:19;28.85;;;15.32;;
82230;SDS011;71832;45.138;9.816;2023-11-19T20:35:48;31.95;;;16.60;;
82230;SDS011;71832;45.138;9.816;2023-11-19T20:38:17;27.92;;;15.77;;
82230;SDS011;71832;45.138;9.816;2023-11-19T20:40:45;27.52;;;15.25;;
82230;SDS011;71832;45.138;9.816;2023-11-19T20:43:15;29.02;;;15.55;;
82230;SDS011;71832;45.138;9.816;2023-11-19T20:45:44;25.33;;;14.43;;
82230;SDS011;71832;45.138;9.816;2023-11-19T20:48:13;30.02;;;16.38;;
82230;SDS011;71832;45.138;9.816;2023-11-19T20:50:41;30.02;;;16.65;;
82230;SDS011;71832;45.138;9.816;2023-11-19T20:53:10;25.48;;;14.27;;
82230;SDS011;71832;45.138;9.816;2023-11-19T20:55:39;22.30;;;13.63;;
82230;SDS011;71832;45.138;9.816;2023-11-19T20:58:10;26.83;;;13.38;;
82230;SDS011;71832;45.138;9.816;2023-11-19T21:00:38;23.05;;;13.25;;
82230;SDS011;71832;45.138;9.816;2023-11-19T21:03:09;23.02;;;12.52;;
82230;SDS011;71832;45.138;9.816;2023-11-19T21:05:37;23.48;;;13.02;;
82230;SDS011;71832;45.138;9.816;2023-11-19T21:08:05;23.58;;;13.27;;
82230;SDS011;71832;45.138;9.816;2023-11-19T21:10:34;25.42;;;13.50;;
82230;SDS011;71832;45.138;9.816;2023-11-19T21:13:03;21.90;;;11.70;;
82230;SDS011;71832;45.138;9.816;2023-11-19T21:15:31;22.75;;;12.30;;
82230;SDS011;71832;45.138;9.816;2023-11-19T21:17:59;21.17;;;11.65;;
82230;SDS011;71832;45.138;9.816;2023-11-19T21:20:27;23.88;;;11.75;;
82230;SDS011;71832;45.138;9.816;2023-11-19T21:22:55;25.10;;;11.27;;
82230;SDS011;71832;45.138;9.816;2023-11-19T21:25:24;19.80;;;11.30;;
82230;SDS011;71832;45.138;9.816;2023-11-19T21:27:53;23.17;;;10.50;;
82230;SDS011;71832;45.138;9.816;2023-11-19T21:30:21;19.17;;;9.80;;
82230;SDS011;71832;45.138;9.816;2023-11-19T21:32:49;18.58;;;10.48;;
82230;SDS011;71832;45.138;9.816;2023-11-19T21:35:18;20.83;;;9.95;;
82230;SDS011;71832;45.138;9.816;2023-11-19T21:37:47;17.17;;;9.75;;
82230;SDS011;71832;45.138;9.816;2023-11-19T21:40:15;19.63;;;9.88;;
82230;SDS011;71832;45.138;9.816;2023-11-19T21:42:43;16.00;;;9.85;;
82230;SDS011;71832;45.138;9.816;2023-11-19T21:45:11;18.63;;;10.05;;
82230;SDS011;71832;45.138;9.816;2023-11-19T21:47:40;21.30;;;12.32;;
82230;SDS011;71832;45.138;9.816;2023-11-19T21:50:08;25.42;;;12.90;;
82230;SDS011;71832;45.138;9.816;2023-11-19T21:52:37;21.77;;;12.60;;
82230;SDS011;71832;45.138;9.816;2023-11-19T21:55:05;22.52;;;12.60;;
82230;SDS011;71832;45.138;9.816;2023-11-19T21:57:35;22.58;;;12.50;;
82230;SDS011;71832;45.138;9.816;2023-11-19T22:00:06;23.23;;;11.68;;
82230;SDS011;71832;45.138;9.816;2023-11-19T22:02:34;26.27;;;12.32;;
82230;SDS011;71832;45.138;9.816;2023-11-19T22:05:02;24.65;;;12.98;;
82230;SDS011;71832;45.138;9.816;2023-11-19T22:07:30;25.65;;;13.35;;
82230;SDS011;71832;45.138;9.816;2023-11-19T22:09:58;69.80;;;23.98;;
82230;SDS011;71832;45.138;9.816;2023-11-19T22:12:28;64.13;;;23.90;;
82230;SDS011;71832;45.138;9.816;2023-11-19T22:14:56;90.45;;;31.70;;
82230;SDS011;71832;45.138;9.816;2023-11-19T22:17:24;70.15;;;27.58;;
82230;SDS011;71832;45.138;9.816;2023-11-19T22:19:52;50.90;;;22.33;;
82230;SDS011;71832;45.138;9.816;2023-11-19T22:22:20;41.78;;;19.00;;
82230;SDS011;71832;45.138;9.816;2023-11-19T22:24:48;44.58;;;20.80;;
82230;SDS011;71832;45.138;9.816;2023-11-19T22:27:16;39.92;;;18.85;;
82230;SDS011;71832;45.138;9.816;2023-11-19T22:29:44;33.70;;;17.45;;
82230;SDS011;71832;45.138;9.816;2023-11-19T22:32:13;24.13;;;13.32;;
82230;SDS011;71832;45.138;9.816;2023-11-19T22:34:42;23.92;;;12.98;;
82230;SDS011;71832;45.138;9.816;2023-11-19T22:37:10;19.75;;;12.13;;
82230;SDS011;71832;45.138;9.816;2023-11-19T22:39:38;20.10;;;11.13;;
82230;SDS011;71832;45.138;9.816;2023-11-19T22:42:05;20.88;;;10.75;;
82230;SDS011;71832;45.138;9.816;2023-11-19T22:44:34;17.77;;;10.88;;
82230;SDS011;71832;45.138;9.816;2023-11-19T22:47:02;17.52;;;10.65;;
82230;SDS011;71832;45.138;9.816;2023-11-19T22:49:30;21.73;;;11.23;;
82230;SDS011;71832;45.138;9.816;2023-11-19T22:51:58;21.33;;;11.75;;
82230;SDS011;71832;45.138;9.816;2023-11-19T22:54:26;20.05;;;11.95;;
82230;SDS011;71832;45.138;9.816;2023-11-19T22:56:54;18.40;;;11.15;;
82230;SDS011;71832;45.138;9.816;2023-11-19T22:59:22;19.38;;;11.90;;
82230;SDS011;71832;45.138;9.816;2023-11-19T23:01:50;19.67;;;11.70;;
82230;SDS011;71832;45.138;9.816;2023-11-19T23:04:18;22.92;;;13.25;;
82230;SDS011;71832;45.138;9.816;2023-11-19T23:06:45;21.92;;;13.25;;
82230;SDS011;71832;45.138;9.816;2023-11-19T23:09:14;25.35;;;13.73;;
82230;SDS011;71832;45.138;9.816;2023-11-19T23:11:42;24.65;;;13.73;;
82230;SDS011;71832;45.138;9.816;2023-11-19T23:14:11;29.20;;;15.55;;
82230;SDS011;71832;45.138;9.816;2023-11-19T23:16:40;26.10;;;14.55;;
82230;SDS011;71832;45.138;9.816;2023-11-19T23:19:09;22.77;;;13.80;;
82230;SDS011;71832;45.138;9.816;2023-11-19T23:21:37;23.60;;;13.27;;
82230;SDS011;71832;45.138;9.816;2023-11-19T23:24:09;26.17;;;13.90;;
82230;SDS011;71832;45.138;9.816;2023-11-19T23:26:38;24.23;;;13.80;;
82230;SDS011;71832;45.138;9.816;2023-11-19T23:29:07;26.63;;;14.82;;
82230;SDS011;71832;45.138;9.816;2023-11-19T23:31:36;23.17;;;13.70;;
82230;SDS011;71832;45.138;9.816;2023-11-19T23:34:04;25.65;;;14.82;;
82230;SDS011;71832;45.138;9.816;2023-11-19T23:36:33;26.67;;;14.00;;
82230;SDS011;71832;45.138;9.816;2023-11-19T23:39:02;21.38;;;13.75;;
82230;SDS011;71832;45.138;9.816;2023-11-19T23:41:32;27.83;;;14.40;;
82230;SDS011;71832;45.138;9.816;2023-11-19T23:44:00;22.52;;;14.00;;
82230;SDS011;71832;45.138;9.816;2023-11-19T23:46:29;23.88;;;14.02;;
82230;SDS011;71832;45.138;9.816;2023-11-19T23:48:58;24.35;;;14.10;;
82230;SDS011;71832;45.138;9.816;2023-11-19T23:51:27;27.77;;;15.10;;
82230;SDS011;71832;45.138;9.816;2023-11-19T23:53:55;26.85;;;15.23;;
82230;SDS011;71832;45.138;9.816;2023-11-19T23:56:23;25.17;;;14.65;;
82230;SDS011;71832;45.138;9.816;2023-11-19T23:58:52;24.33;;;13.95;;
